createdAt,value
2018-04-28T00:02:10.681Z,5.27
2018-04-28T00:04:38.332Z,5.30
2018-04-28T00:07:06.035Z,6.50
2018-04-28T00:09:33.739Z,4.87
2018-04-28T00:12:02.181Z,5.93
2018-04-28T00:14:30.675Z,5.63
2018-04-28T00:16:59.063Z,5.20
2018-04-28T00:19:27.990Z,5.83
2018-04-28T00:24:50.081Z,5.80
2018-04-28T00:27:36.488Z,5.40
2018-04-28T00:30:14.041Z,5.50
2018-04-28T00:32:41.836Z,5.73
2018-04-28T00:35:13.050Z,5.90
2018-04-28T00:37:47.165Z,5.10
2018-04-28T00:40:41.683Z,7.00
2018-04-28T00:43:18.101Z,5.90
2018-04-28T00:45:48.925Z,5.93
2018-04-28T00:48:22.216Z,5.83
2018-04-28T00:50:50.637Z,6.33
2018-04-28T00:53:18.318Z,6.00
2018-04-28T00:55:48.982Z,5.53
2018-04-28T00:58:19.045Z,5.60
2018-04-28T01:00:49.237Z,5.73
2018-04-28T01:03:22.072Z,6.00
2018-04-28T01:05:49.754Z,5.63
2018-04-28T01:08:19.108Z,6.57
2018-04-28T01:10:47.499Z,5.97
2018-04-28T01:13:15.156Z,6.10
2018-04-28T01:15:42.842Z,5.53
2018-04-28T01:18:15.385Z,6.13
2018-04-28T01:20:46.811Z,5.60
2018-04-28T01:23:16.040Z,6.70
2018-04-28T01:25:47.259Z,6.27
2018-04-28T01:28:16.587Z,6.00
2018-04-28T01:31:01.896Z,6.27
2018-04-28T01:33:35.313Z,5.97
2018-04-28T01:36:25.289Z,5.60
2018-04-28T01:42:00.027Z,6.07
2018-04-28T01:44:48.562Z,5.70
2018-04-28T01:47:20.811Z,6.07
2018-04-28T01:52:45.858Z,6.97
2018-04-28T01:55:18.170Z,6.77
2018-04-28T01:58:20.047Z,6.27
2018-04-28T02:01:01.508Z,6.70
2018-04-28T02:03:36.708Z,6.63
2018-04-28T02:09:00.953Z,7.27
2018-04-28T02:11:30.831Z,6.27
2018-04-28T02:14:00.876Z,6.67
2018-04-28T02:16:32.493Z,7.83
2018-04-28T02:19:05.228Z,6.67
2018-04-28T02:21:38.772Z,6.87
2018-04-28T02:24:15.448Z,6.87
2018-04-28T02:26:45.043Z,6.20
2018-04-28T02:32:16.138Z,6.33
2018-04-28T02:34:50.770Z,7.23
2018-04-28T02:37:24.456Z,6.27
2018-04-28T02:43:06.153Z,6.20
2018-04-28T02:48:47.164Z,6.57
2018-04-28T02:51:21.539Z,6.93
2018-04-28T02:53:49.224Z,6.23
2018-04-28T02:56:21.572Z,8.00
2018-04-28T02:59:02.049Z,7.23
2018-04-28T03:01:49.281Z,6.67
2018-04-28T03:04:26.629Z,6.33
2018-04-28T03:07:19.621Z,6.63
2018-04-28T03:10:01.209Z,6.40
2018-04-28T03:12:29.815Z,7.07
2018-04-28T03:14:58.490Z,7.17
2018-04-28T03:17:31.157Z,7.33
2018-04-28T03:20:19.335Z,6.87
2018-04-28T03:23:04.802Z,7.37
2018-04-28T03:25:38.323Z,6.73
2018-04-28T03:28:37.537Z,7.83
2018-04-28T03:31:11.505Z,7.30
2018-04-28T03:33:41.775Z,7.67
2018-04-28T03:36:23.023Z,6.70
2018-04-28T03:41:47.944Z,7.13
2018-04-28T03:44:33.963Z,7.50
2018-04-28T03:47:10.312Z,7.60
2018-04-28T03:49:38.760Z,6.97
2018-04-28T03:52:07.305Z,7.43
2018-04-28T03:54:37.999Z,7.87
2018-04-28T04:00:19.752Z,8.00
2018-04-28T04:02:59.515Z,6.90
2018-04-28T04:05:35.172Z,7.97
2018-04-28T04:08:08.647Z,7.17
2018-04-28T04:10:37.101Z,8.10
2018-04-28T04:13:15.205Z,7.53
2018-04-28T04:18:45.105Z,7.47
2018-04-28T04:21:21.488Z,7.20
2018-04-28T04:24:00.959Z,7.97
2018-04-28T04:29:48.808Z,9.30
2018-04-28T04:32:18.288Z,7.40
2018-04-28T04:35:06.192Z,8.30
2018-04-28T04:40:54.860Z,7.37
2018-04-28T04:43:24.931Z,7.73
2018-04-28T04:49:04.862Z,7.50
2018-04-28T04:51:36.127Z,7.80
2018-04-28T04:54:25.480Z,6.70
2018-04-28T04:57:00.109Z,9.07
2018-04-28T04:59:48.497Z,8.23
2018-04-28T05:02:24.897Z,8.40
2018-04-28T05:04:55.107Z,7.40
2018-04-28T05:07:31.392Z,7.17
2018-04-28T05:13:39.468Z,8.10
2018-04-28T05:19:30.378Z,9.77
2018-04-28T05:22:10.696Z,8.23
2018-04-28T05:24:50.279Z,9.47
2018-04-28T05:30:33.131Z,8.53
2018-04-28T05:36:13.204Z,8.60
2018-04-28T05:41:48.267Z,8.53
2018-04-28T05:47:35.095Z,7.87
2018-04-28T05:53:21.736Z,7.93
2018-04-28T05:59:18.535Z,7.53
2018-04-28T06:02:07.899Z,8.77
2018-04-28T06:04:40.051Z,7.63
2018-04-28T06:10:21.611Z,8.50
2018-04-28T06:16:31.808Z,7.23
2018-04-28T06:22:01.611Z,7.17
2018-04-28T06:24:30.265Z,6.80
2018-04-28T06:26:57.959Z,6.60
2018-04-28T06:29:25.626Z,7.27
2018-04-28T06:31:54.099Z,8.17
2018-04-28T06:34:21.763Z,7.03
2018-04-28T06:36:49.458Z,6.37
2018-04-28T06:39:17.161Z,7.07
2018-04-28T06:41:44.843Z,6.97
2018-04-28T06:44:12.533Z,7.73
2018-04-28T06:46:40.251Z,6.73
2018-04-28T06:49:08.930Z,6.70
2018-04-28T06:51:36.623Z,7.50
2018-04-28T06:54:05.083Z,7.00
2018-04-28T06:56:32.760Z,7.40
2018-04-28T06:59:00.448Z,7.77
2018-04-28T07:01:28.910Z,6.77
2018-04-28T07:03:57.440Z,7.27
2018-04-28T07:06:25.100Z,6.80
2018-04-28T07:08:52.815Z,7.70
2018-04-28T07:11:21.282Z,6.77
2018-04-28T07:13:48.963Z,7.03
2018-04-28T07:16:17.423Z,6.63
2018-04-28T07:18:45.127Z,6.93
2018-04-28T07:21:12.815Z,7.53
2018-04-28T07:23:40.483Z,7.27
2018-04-28T07:26:08.193Z,7.77
2018-04-28T07:28:36.628Z,8.07
2018-04-28T07:31:04.345Z,7.37
2018-04-28T07:33:32.788Z,7.10
2018-04-28T07:36:00.495Z,6.87
2018-04-28T07:38:28.920Z,7.10
2018-04-28T07:40:58.177Z,7.43
2018-04-28T07:43:25.979Z,7.40
2018-04-28T07:45:53.666Z,7.00
2018-04-28T07:48:21.370Z,6.87
2018-04-28T07:50:49.047Z,6.83
2018-04-28T07:53:16.800Z,7.10
2018-04-28T07:55:44.463Z,6.77
2018-04-28T07:58:12.164Z,6.70
2018-04-28T08:00:39.840Z,7.13
2018-04-28T08:03:08.547Z,6.77
2018-04-28T08:05:37.011Z,6.73
2018-04-28T08:08:04.671Z,7.00
2018-04-28T08:10:32.406Z,6.33
2018-04-28T08:13:00.111Z,5.77
2018-04-28T08:15:28.571Z,5.13
2018-04-28T08:17:56.256Z,6.10
2018-04-28T08:20:24.715Z,5.10
2018-04-28T08:22:52.394Z,5.03
2018-04-28T08:25:20.877Z,4.90
2018-04-28T08:27:49.308Z,4.90
2018-04-28T08:30:17.043Z,3.30
2018-04-28T08:32:44.734Z,3.20
2018-04-28T08:35:12.396Z,3.33
2018-04-28T08:37:40.107Z,2.70
2018-04-28T08:40:08.552Z,3.53
2018-04-28T08:42:36.243Z,2.93
2018-04-28T08:45:03.924Z,2.80
2018-04-28T08:47:32.387Z,2.63
2018-04-28T08:50:02.169Z,3.23
2018-04-28T08:52:29.935Z,2.70
2018-04-28T08:54:58.523Z,3.37
2018-04-28T08:57:26.226Z,3.10
2018-04-28T09:00:06.629Z,2.80
2018-04-28T09:02:34.319Z,2.67
2018-04-28T09:05:01.998Z,2.40
2018-04-28T09:07:39.310Z,2.53
2018-04-28T09:10:06.975Z,2.50
2018-04-28T09:12:34.677Z,3.28
2018-04-28T09:15:02.441Z,3.00
2018-04-28T09:17:31.443Z,2.58
2018-04-28T09:19:59.770Z,2.42
2018-04-28T09:22:27.463Z,2.95
2018-04-28T09:24:55.124Z,3.33
2018-04-28T09:27:22.818Z,2.62
2018-04-28T09:29:50.519Z,2.55
2018-04-28T09:32:18.188Z,3.20
2018-04-28T09:34:45.873Z,2.20
2018-04-28T09:37:13.571Z,2.93
2018-04-28T09:39:41.267Z,2.67
2018-04-28T09:42:08.960Z,2.63
2018-04-28T09:44:36.612Z,2.67
2018-04-28T09:47:04.308Z,2.27
2018-04-28T09:49:31.987Z,2.43
2018-04-28T09:52:00.944Z,2.80
2018-04-28T09:54:28.606Z,2.47
2018-04-28T09:56:56.302Z,2.73
2018-04-28T09:59:24.737Z,2.50
2018-04-28T10:01:58.334Z,2.50
2018-04-28T10:04:26.009Z,2.33
2018-04-28T10:06:53.710Z,2.80
2018-04-28T10:09:22.139Z,2.80
2018-04-28T10:11:49.808Z,3.10
2018-04-28T10:14:17.500Z,3.30
2018-04-28T10:16:45.160Z,3.10
2018-04-28T10:19:12.854Z,7.60
2018-04-28T10:21:40.582Z,13.33
2018-04-28T10:24:08.236Z,3.23
2018-04-28T10:26:35.891Z,3.30
2018-04-28T10:29:03.581Z,3.07
2018-04-28T10:31:32.156Z,3.00
2018-04-28T10:33:59.873Z,3.20
2018-04-28T10:36:27.518Z,2.87
2018-04-28T10:38:55.204Z,3.20
2018-04-28T10:41:22.868Z,4.63
2018-04-28T10:43:50.577Z,2.37
2018-04-28T10:46:19.016Z,3.77
2018-04-28T10:48:46.693Z,2.93
2018-04-28T10:51:14.388Z,2.50
2018-04-28T10:53:42.887Z,2.70
2018-04-28T10:56:10.540Z,2.20
2018-04-28T10:58:38.968Z,2.60
2018-04-28T11:01:06.666Z,2.43
2018-04-28T11:03:35.097Z,2.20
2018-04-28T11:06:02.822Z,2.23
2018-04-28T11:08:32.612Z,2.30
2018-04-28T11:11:01.275Z,2.10
2018-04-28T11:13:28.971Z,1.90
2018-04-28T11:15:57.411Z,2.07
2018-04-28T11:18:25.095Z,2.30
2018-04-28T11:20:52.761Z,1.80
2018-04-28T11:23:20.450Z,2.00
2018-04-28T11:25:48.896Z,1.83
2018-04-28T11:28:16.607Z,2.23
2018-04-28T11:30:44.872Z,1.90
2018-04-28T11:33:13.332Z,1.67
2018-04-28T11:35:41.764Z,1.67
2018-04-28T11:38:09.431Z,1.30
2018-04-28T11:40:37.164Z,1.90
2018-04-28T11:43:04.814Z,1.43
2018-04-28T11:45:33.268Z,1.57
2018-04-28T11:48:01.916Z,1.33
2018-04-28T11:50:29.624Z,2.10
2018-04-28T11:52:57.287Z,1.60
2018-04-28T11:55:25.028Z,2.00
2018-04-28T11:57:52.689Z,1.53
2018-04-28T12:00:20.379Z,2.13
2018-04-28T12:02:48.803Z,1.93
2018-04-28T12:05:16.540Z,1.77
2018-04-28T12:07:44.221Z,1.50
2018-04-28T12:10:11.882Z,2.13
2018-04-28T12:12:39.625Z,1.70
2018-04-28T12:15:07.258Z,1.77
2018-04-28T12:17:34.935Z,1.77
2018-04-28T12:20:03.634Z,1.80
2018-04-28T12:22:32.306Z,1.93
2018-04-28T12:25:01.957Z,1.73
2018-04-28T12:27:29.660Z,1.57
2018-04-28T12:29:59.062Z,1.53
2018-04-28T12:32:26.753Z,1.47
2018-04-28T12:34:54.463Z,1.77
2018-04-28T12:37:22.156Z,1.67
2018-04-28T12:39:50.605Z,1.57
2018-04-28T12:42:18.323Z,1.37
2018-04-28T12:44:46.005Z,1.30
2018-04-28T12:47:13.730Z,1.13
2018-04-28T12:49:42.155Z,1.73
2018-04-28T12:52:09.910Z,1.10
2018-04-28T12:54:37.565Z,1.37
2018-04-28T12:57:05.306Z,1.30
2018-04-28T12:59:33.727Z,5.83
2018-04-28T13:02:01.643Z,1.17
2018-04-28T13:04:30.088Z,2.10
2018-04-28T13:06:58.494Z,1.37
2018-04-28T13:09:26.188Z,1.70
2018-04-28T13:11:53.875Z,1.20
2018-04-28T13:14:21.539Z,1.77
2018-04-28T13:16:49.253Z,1.20
2018-04-28T13:19:17.679Z,1.20
2018-04-28T13:21:45.379Z,1.33
2018-04-28T13:24:13.104Z,1.20
2018-04-28T13:26:40.801Z,1.03
2018-04-28T13:29:08.553Z,1.60
2018-04-28T13:31:36.213Z,1.30
2018-04-28T13:34:03.882Z,2.47
2018-04-28T13:36:31.576Z,1.10
2018-04-28T13:38:59.999Z,1.60
2018-04-28T13:41:28.460Z,1.70
2018-04-28T13:43:56.162Z,1.47
2018-04-28T13:46:23.869Z,1.30
2018-04-28T13:48:51.584Z,1.67
2018-04-28T13:51:19.375Z,1.20
2018-04-28T13:53:49.956Z,1.40
2018-04-28T13:56:18.935Z,1.10
2018-04-28T13:58:46.713Z,1.23
2018-04-28T14:01:14.430Z,1.10
2018-04-28T14:03:42.873Z,1.60
2018-04-28T14:06:10.536Z,1.27
2018-04-28T14:08:38.258Z,1.60
2018-04-28T14:11:05.940Z,1.13
2018-04-28T14:13:34.432Z,1.30
2018-04-28T14:16:02.661Z,1.53
2018-04-28T14:18:39.349Z,1.33
2018-04-28T14:21:07.527Z,1.40
2018-04-28T14:23:35.238Z,4.97
2018-04-28T14:26:03.416Z,3.30
2018-04-28T14:28:35.635Z,1.80
2018-04-28T14:31:03.431Z,1.83
2018-04-28T14:33:31.797Z,1.40
2018-04-28T14:35:59.525Z,1.80
2018-04-28T14:38:27.945Z,1.67
2018-04-28T14:40:55.640Z,1.10
2018-04-28T14:43:23.312Z,1.33
2018-04-28T14:45:51.807Z,1.97
2018-04-28T14:48:20.243Z,1.40
2018-04-28T14:50:47.919Z,1.33
2018-04-28T14:53:15.623Z,1.33
2018-04-28T14:55:43.286Z,1.30
2018-04-28T14:58:10.984Z,1.33
2018-04-28T15:00:38.694Z,1.30
2018-04-28T15:03:07.177Z,1.50
2018-04-28T15:05:35.622Z,1.20
2018-04-28T15:08:04.148Z,1.33
2018-04-28T15:10:32.302Z,1.40
2018-04-28T15:13:00.757Z,1.27
2018-04-28T15:15:28.964Z,1.37
2018-04-28T15:17:56.672Z,0.93
2018-04-28T15:20:24.377Z,1.30
2018-04-28T15:22:52.056Z,1.20
2018-04-28T15:25:19.803Z,1.63
2018-04-28T15:27:47.479Z,1.10
2018-04-28T15:30:16.442Z,1.43
2018-04-28T15:32:44.116Z,1.10
2018-04-28T15:35:11.827Z,1.10
2018-04-28T15:37:39.544Z,1.00
2018-04-28T15:40:08.116Z,1.50
2018-04-28T15:42:37.838Z,1.03
2018-04-28T15:45:06.280Z,1.00
2018-04-28T15:47:33.996Z,1.07
2018-04-28T15:50:02.766Z,1.10
2018-04-28T15:52:31.875Z,1.10
2018-04-28T15:54:59.658Z,1.07
2018-04-28T15:57:27.430Z,1.10
2018-04-28T15:59:55.108Z,0.93
2018-04-28T16:02:22.811Z,1.10
2018-04-28T16:04:50.555Z,1.00
2018-04-28T16:07:19.231Z,0.97
2018-04-28T16:09:46.928Z,1.67
2018-04-28T16:12:15.362Z,1.20
2018-04-28T16:14:43.140Z,1.00
2018-04-28T16:17:10.793Z,1.53
2018-04-28T16:19:38.516Z,1.10
2018-04-28T16:22:06.988Z,1.53
2018-04-28T16:24:35.460Z,0.97
2018-04-28T16:27:03.991Z,1.50
2018-04-28T16:29:33.314Z,2.00
2018-04-28T16:32:02.469Z,1.80
2018-04-28T16:34:30.198Z,1.30
2018-04-28T16:36:58.645Z,1.40
2018-04-28T16:39:26.321Z,1.30
2018-04-28T16:41:54.019Z,1.27
2018-04-28T16:44:22.465Z,1.30
2018-04-28T16:46:50.337Z,1.17
2018-04-28T16:49:18.812Z,1.53
2018-04-28T16:51:46.508Z,1.83
2018-04-28T16:54:14.969Z,1.37
2018-04-28T16:56:42.628Z,1.50
2018-04-28T16:59:10.365Z,1.40
2018-04-28T17:01:38.021Z,1.27
2018-04-28T17:04:05.716Z,1.33
2018-04-28T17:06:34.689Z,1.10
2018-04-28T17:09:02.395Z,1.03
2018-04-28T17:11:30.822Z,1.80
2018-04-28T17:13:58.521Z,1.90
2018-04-28T17:16:26.962Z,1.97
2018-04-28T17:18:54.658Z,1.90
2018-04-28T17:21:22.331Z,2.33
2018-04-28T17:23:50.791Z,2.10
2018-04-28T17:26:18.459Z,1.40
2018-04-28T17:28:46.167Z,2.03
2018-04-28T17:31:13.819Z,2.80
2018-04-28T17:33:41.556Z,3.83
2018-04-28T17:36:10.201Z,3.07
2018-04-28T17:38:37.959Z,2.80
2018-04-28T17:41:05.651Z,3.70
2018-04-28T17:43:33.962Z,3.10
2018-04-28T17:46:03.239Z,2.17
2018-04-28T17:48:32.301Z,1.70
2018-04-28T17:51:00.527Z,2.70
2018-04-28T17:53:28.226Z,1.97
2018-04-28T17:55:55.887Z,2.20
2018-04-28T17:58:23.586Z,2.10
2018-04-28T18:00:51.253Z,3.27
2018-04-28T18:03:18.956Z,2.03
2018-04-28T18:05:46.633Z,2.10
2018-04-28T18:08:14.334Z,2.50
2018-04-28T18:10:42.032Z,2.40
2018-04-28T18:13:09.734Z,3.27
2018-04-28T18:15:37.415Z,3.67
2018-04-28T18:18:05.072Z,3.23
2018-04-28T18:20:34.231Z,2.57
2018-04-28T18:23:01.896Z,3.50
2018-04-28T18:25:31.340Z,9.40
2018-04-28T18:27:59.009Z,9.00
2018-04-28T18:30:26.746Z,16.33
2018-04-28T18:32:54.407Z,21.70
2018-04-28T18:35:22.106Z,22.27
2018-04-28T18:37:50.549Z,24.03
2018-04-28T18:40:18.257Z,22.03
2018-04-28T18:42:46.692Z,17.47
2018-04-28T18:45:14.405Z,16.47
2018-04-28T18:47:42.118Z,15.57
2018-04-28T18:50:09.832Z,16.63
2018-04-28T18:52:38.269Z,15.60
2018-04-28T18:55:05.940Z,14.47
2018-04-28T18:57:34.026Z,18.83
2018-04-28T19:00:02.872Z,18.60
2018-04-28T19:02:30.580Z,20.40
2018-04-28T19:04:59.364Z,19.80
2018-04-28T19:07:27.068Z,16.20
2018-04-28T19:09:54.740Z,16.20
2018-04-28T19:12:22.470Z,23.57
2018-04-28T19:14:50.931Z,9.80
2018-04-28T19:17:18.633Z,7.33
2018-04-28T19:19:46.302Z,7.33
2018-04-28T19:22:14.097Z,6.40
2018-04-28T19:24:42.478Z,10.60
2018-04-28T19:27:10.150Z,18.17
2018-04-28T19:29:38.636Z,28.77
2018-04-28T19:32:06.339Z,45.13
2018-04-28T19:34:35.046Z,76.13
2018-04-28T19:37:03.888Z,27.03
2018-04-28T19:39:32.950Z,20.90
2018-04-28T19:42:00.650Z,18.33
2018-04-28T19:44:29.100Z,15.53
2018-04-28T19:46:57.357Z,14.37
2018-04-28T19:49:25.070Z,14.40
2018-04-28T19:51:53.498Z,8.03
2018-04-28T19:54:21.248Z,7.20
2018-04-28T19:56:48.895Z,5.17
2018-04-28T19:59:16.564Z,8.37
2018-04-28T20:01:44.309Z,11.70
2018-04-28T20:04:11.977Z,16.30
2018-04-28T20:06:39.686Z,9.57
2018-04-28T20:09:07.351Z,7.57
2018-04-28T20:11:35.051Z,6.03
2018-04-28T20:14:04.493Z,5.57
2018-04-28T20:16:32.238Z,5.30
2018-04-28T20:18:59.949Z,10.47
2018-04-28T20:21:27.631Z,10.23
2018-04-28T20:24:08.086Z,7.37
2018-04-28T20:26:35.771Z,9.67
2018-04-28T20:29:05.386Z,6.97
2018-04-28T20:31:33.228Z,7.10
2018-04-28T20:34:01.654Z,6.07
2018-04-28T20:36:29.344Z,6.90
2018-04-28T20:38:57.022Z,7.10
2018-04-28T20:41:24.718Z,7.47
2018-04-28T20:43:52.419Z,6.80
2018-04-28T20:46:20.076Z,7.20
2018-04-28T20:48:48.511Z,7.37
2018-04-28T20:51:16.985Z,6.17
2018-04-28T20:53:45.424Z,5.90
2018-04-28T20:56:13.077Z,6.03
2018-04-28T20:58:40.781Z,5.90
2018-04-28T21:01:09.215Z,6.27
2018-04-28T21:03:36.922Z,5.87
2018-04-28T21:06:05.393Z,16.43
2018-04-28T21:08:33.496Z,28.07
2018-04-28T21:11:01.928Z,11.37
2018-04-28T21:13:29.631Z,3.83
2018-04-28T21:15:58.062Z,4.53
2018-04-28T21:18:25.755Z,4.27
2018-04-28T21:20:53.412Z,4.17
2018-04-28T21:23:21.184Z,4.93
2018-04-28T21:25:48.846Z,4.40
2018-04-28T21:28:16.532Z,4.40
2018-04-28T21:30:44.185Z,3.57
2018-04-28T21:33:12.638Z,4.30
2018-04-28T21:35:40.308Z,4.47
2018-04-28T21:38:07.991Z,4.63
2018-04-28T21:40:35.695Z,4.40
2018-04-28T21:43:04.525Z,4.97
2018-04-28T21:45:32.184Z,5.20
2018-04-28T21:47:59.870Z,4.83
2018-04-28T21:50:28.288Z,4.83
2018-04-28T21:52:55.972Z,4.20
2018-04-28T21:55:23.638Z,5.60
2018-04-28T21:57:51.355Z,5.60
2018-04-28T22:00:18.998Z,5.93
2018-04-28T22:02:46.683Z,6.13
2018-04-28T22:05:14.378Z,6.37
2018-04-28T22:07:42.038Z,6.40
2018-04-28T22:10:09.724Z,5.47
2018-04-28T22:12:38.147Z,6.03
2018-04-28T22:15:05.844Z,5.27
2018-04-28T22:17:33.852Z,4.47
2018-04-28T22:20:02.315Z,5.00
2018-04-28T22:22:30.747Z,5.27
2018-04-28T22:24:58.469Z,5.70
2018-04-28T22:27:26.891Z,5.17
2018-04-28T22:29:54.557Z,5.30
2018-04-28T22:32:22.244Z,5.10
2018-04-28T22:34:49.934Z,5.43
2018-04-28T22:37:18.390Z,5.00
2018-04-28T22:39:46.047Z,5.57
2018-04-28T22:42:13.731Z,5.33
2018-04-28T22:44:42.145Z,4.90
2018-04-28T22:47:09.839Z,4.93
2018-04-28T22:49:37.502Z,5.20
2018-04-28T22:52:05.690Z,6.17
2018-04-28T22:54:33.358Z,5.30
2018-04-28T22:57:02.748Z,5.67
2018-04-28T22:59:30.447Z,5.43
2018-04-28T23:01:58.876Z,5.53
2018-04-28T23:04:26.572Z,5.17
2018-04-28T23:06:54.995Z,5.20
2018-04-28T23:09:22.880Z,5.43
2018-04-28T23:11:50.541Z,5.67
2018-04-28T23:14:18.227Z,5.73
2018-04-28T23:16:45.974Z,7.20
2018-04-28T23:19:13.659Z,5.90
2018-04-28T23:21:41.667Z,6.27
2018-04-28T23:24:09.673Z,5.33
2018-04-28T23:26:37.643Z,5.43
2018-04-28T23:29:06.060Z,5.53
2018-04-28T23:31:35.551Z,7.53
2018-04-28T23:34:03.207Z,6.43
2018-04-28T23:36:30.903Z,6.53
2018-04-28T23:38:59.323Z,5.53
2018-04-28T23:41:27.016Z,5.40
2018-04-28T23:43:54.715Z,5.30
2018-04-28T23:46:22.400Z,4.90
2018-04-28T23:48:50.055Z,5.60
2018-04-28T23:51:17.739Z,5.73
2018-04-28T23:53:45.407Z,4.47
2018-04-28T23:56:13.098Z,4.30
2018-04-28T23:58:40.762Z,5.13
